createdAt,value
2024-05-09T00:04:10.555Z,10.00
2024-05-09T00:09:17.778Z,10.10
2024-05-09T00:14:24.905Z,10.20
2024-05-09T00:19:32.286Z,9.90
2024-05-09T00:24:39.613Z,9.70
2024-05-09T00:29:46.703Z,9.80
2024-05-09T00:34:53.658Z,9.70
2024-05-09T00:40:01.054Z,9.70
2024-05-09T00:45:08.930Z,9.70
2024-05-09T00:50:22.659Z,9.70
2024-05-09T00:55:25.056Z,9.70
2024-05-09T01:00:38.889Z,9.70
2024-05-09T01:05:41.744Z,9.60
2024-05-09T01:10:51.063Z,9.60
2024-05-09T01:15:58.649Z,9.60
2024-05-09T01:21:07.713Z,9.60
2024-05-09T01:26:15.307Z,9.60
2024-05-09T01:31:22.750Z,9.50
2024-05-09T01:36:30.005Z,9.40
2024-05-09T01:41:36.854Z,9.50
2024-05-09T01:46:43.837Z,9.40
2024-05-09T01:51:51.191Z,9.40
2024-05-09T01:56:58.566Z,9.50
2024-05-09T02:02:05.987Z,9.40
2024-05-09T02:07:13.651Z,9.50
2024-05-09T02:12:20.722Z,9.30
2024-05-09T02:17:28.119Z,9.40
2024-05-09T02:22:35.204Z,9.30
2024-05-09T02:27:42.934Z,9.30
2024-05-09T02:32:50.026Z,9.50
2024-05-09T02:37:57.572Z,9.50
2024-05-09T02:43:05.495Z,9.50
2024-05-09T02:48:16.170Z,9.40
2024-05-09T02:53:23.591Z,9.30
2024-05-09T02:58:30.901Z,9.30
2024-05-09T03:03:38.412Z,9.20
2024-05-09T03:08:51.944Z,9.20
2024-05-09T03:13:58.715Z,9.10
2024-05-09T03:19:05.750Z,9.10
2024-05-09T03:24:13.698Z,9.20
2024-05-09T03:29:20.499Z,9.00
2024-05-09T03:34:27.673Z,9.10
2024-05-09T03:39:35.039Z,9.10
2024-05-09T03:44:42.077Z,9.00
2024-05-09T03:49:49.133Z,9.10
2024-05-09T03:54:56.327Z,9.00
2024-05-09T04:00:05.497Z,9.00
2024-05-09T04:05:12.419Z,9.10
2024-05-09T04:10:27.760Z,9.10
2024-05-09T04:15:29.759Z,9.00
2024-05-09T04:20:39.746Z,9.10
2024-05-09T04:25:47.109Z,9.10
2024-05-09T04:30:54.298Z,9.10
2024-05-09T04:36:01.570Z,9.20
2024-05-09T04:41:08.612Z,9.30
2024-05-09T04:46:16.873Z,9.30
2024-05-09T04:51:23.768Z,9.30
2024-05-09T04:56:31.289Z,9.30
2024-05-09T05:01:39.061Z,9.30
2024-05-09T05:06:46.190Z,9.40
2024-05-09T05:11:53.142Z,9.40
2024-05-09T05:17:00.510Z,9.50
2024-05-09T05:22:07.791Z,9.50
2024-05-09T05:27:15.481Z,9.60
2024-05-09T05:32:22.332Z,9.70
2024-05-09T05:37:29.460Z,9.70
2024-05-09T05:42:36.254Z,9.90
2024-05-09T05:47:43.454Z,9.90
2024-05-09T05:52:50.504Z,9.90
2024-05-09T05:57:57.397Z,9.90
2024-05-09T06:03:04.635Z,10.00
2024-05-09T06:08:11.872Z,10.30
2024-05-09T06:13:18.957Z,10.30
2024-05-09T06:18:26.234Z,10.30
2024-05-09T06:23:35.182Z,10.30
2024-05-09T06:28:42.360Z,10.30
2024-05-09T06:33:49.490Z,10.50
2024-05-09T06:38:56.437Z,10.70
2024-05-09T06:44:03.500Z,10.80
2024-05-09T06:49:13.311Z,10.90
2024-05-09T06:54:20.700Z,11.00
2024-05-09T06:59:27.540Z,11.10
2024-05-09T07:04:34.643Z,11.40
2024-05-09T07:09:41.599Z,11.70
2024-05-09T07:14:48.861Z,11.90
2024-05-09T07:19:55.918Z,12.00
2024-05-09T07:25:03.026Z,12.20
2024-05-09T07:30:13.586Z,12.30
2024-05-09T07:35:19.935Z,12.70
2024-05-09T07:40:33.396Z,12.90
2024-05-09T07:55:53.658Z,13.20
2024-05-09T08:01:02.267Z,13.30
2024-05-09T08:06:09.189Z,13.10
2024-05-09T08:11:16.287Z,13.00
2024-05-09T08:16:23.284Z,13.60
2024-05-09T08:21:30.447Z,13.60
2024-05-09T08:26:37.288Z,13.80
2024-05-09T08:31:44.403Z,13.80
2024-05-09T08:36:52.102Z,14.20
2024-05-09T08:41:59.374Z,14.00
2024-05-09T08:47:09.508Z,14.40
2024-05-09T08:52:16.512Z,14.70
2024-05-09T08:57:24.768Z,15.30
2024-05-09T09:02:33.282Z,14.70
2024-05-09T09:07:51.875Z,14.80
2024-05-09T09:12:58.930Z,15.50
2024-05-09T09:18:07.862Z,15.40
2024-05-09T09:23:14.544Z,16.20
2024-05-09T09:28:24.207Z,16.20
2024-05-09T09:33:33.001Z,16.50
2024-05-09T09:38:40.572Z,16.70
2024-05-09T09:43:48.157Z,17.60
2024-05-09T09:48:55.889Z,17.30
2024-05-09T09:54:05.712Z,17.00
2024-05-09T09:59:15.075Z,16.50
2024-05-09T10:04:22.379Z,16.30
2024-05-09T10:09:29.827Z,16.70
2024-05-09T10:14:51.029Z,16.80
2024-05-09T10:20:18.361Z,17.90
2024-05-09T10:25:19.924Z,17.70
2024-05-09T10:30:34.131Z,17.70
2024-05-09T10:35:36.378Z,18.40
2024-05-09T10:40:45.645Z,17.40
2024-05-09T10:45:58.693Z,17.10
2024-05-09T10:51:08.812Z,18.00
2024-05-09T10:56:19.460Z,18.20
2024-05-09T11:01:27.432Z,17.60
2024-05-09T11:06:37.151Z,19.10
2024-05-09T11:11:44.227Z,18.10
2024-05-09T11:17:09.062Z,18.40
2024-05-09T11:22:16.812Z,18.60
2024-05-09T11:27:25.682Z,18.40
2024-05-09T11:32:33.224Z,18.10
2024-05-09T11:37:41.303Z,18.70
2024-05-09T11:42:51.548Z,19.50
2024-05-09T11:47:56.936Z,18.80
2024-05-09T11:53:04.328Z,17.70
2024-05-09T11:58:12.758Z,17.90
2024-05-09T12:03:21.031Z,18.30
2024-05-09T12:08:28.190Z,18.30
2024-05-09T12:13:35.339Z,18.20
2024-05-09T12:18:42.779Z,18.70
2024-05-09T12:23:50.007Z,19.30
2024-05-09T12:28:56.953Z,18.70
2024-05-09T12:34:04.267Z,18.80
2024-05-09T12:39:12.105Z,17.90
2024-05-09T12:44:19.209Z,18.10
2024-05-09T12:49:26.197Z,17.90
2024-05-09T12:54:33.985Z,18.10
2024-05-09T12:59:41.826Z,18.40
2024-05-09T13:04:48.994Z,19.10
2024-05-09T13:09:56.503Z,18.60
2024-05-09T13:15:03.621Z,18.30
2024-05-09T13:20:18.900Z,19.10
2024-05-09T13:25:19.496Z,18.50
2024-05-09T13:30:35.114Z,18.40
2024-05-09T13:35:35.811Z,18.00
2024-05-09T13:40:43.086Z,18.20
2024-05-09T13:45:50.418Z,19.20
2024-05-09T13:50:58.022Z,19.30
2024-05-09T13:56:05.004Z,18.70
2024-05-09T14:01:11.842Z,18.80
2024-05-09T14:06:18.722Z,17.80
2024-05-09T14:11:25.923Z,17.60
2024-05-09T14:16:34.143Z,18.10
2024-05-09T14:21:41.854Z,18.60
2024-05-09T14:26:49.158Z,18.80
2024-05-09T14:31:56.321Z,18.10
2024-05-09T14:37:03.718Z,18.10
2024-05-09T14:42:10.455Z,17.70
2024-05-09T14:47:19.761Z,17.80
2024-05-09T14:52:27.115Z,18.40
2024-05-09T14:57:34.306Z,18.30
2024-05-09T15:02:41.506Z,18.70
2024-05-09T15:07:48.482Z,17.80
2024-05-09T15:12:55.479Z,17.60
2024-05-09T15:18:02.921Z,17.40
2024-05-09T15:23:09.984Z,17.60
2024-05-09T15:28:17.170Z,17.50
2024-05-09T15:33:24.285Z,17.30
2024-05-09T15:38:31.018Z,17.60
2024-05-09T15:43:38.242Z,18.30
2024-05-09T15:48:45.368Z,18.20
2024-05-09T15:53:52.881Z,18.30
2024-05-09T15:59:00.579Z,18.40
2024-05-09T16:04:08.063Z,18.50
2024-05-09T16:09:15.738Z,17.80
2024-05-09T16:14:22.525Z,18.10
2024-05-09T16:19:29.529Z,17.80
2024-05-09T16:24:36.425Z,17.60
2024-05-09T16:29:43.309Z,17.30
2024-05-09T16:34:50.225Z,17.40
2024-05-09T16:39:57.671Z,17.40
2024-05-09T16:45:04.739Z,17.00
2024-05-09T16:50:15.831Z,17.20
2024-05-09T16:55:25.517Z,17.10
2024-05-09T17:00:40.175Z,16.90
2024-05-09T17:05:41.502Z,16.60
2024-05-09T17:10:51.948Z,16.30
2024-05-09T17:15:59.207Z,16.20
2024-05-09T17:21:06.749Z,16.10
2024-05-09T17:26:14.075Z,15.90
2024-05-09T17:31:21.023Z,15.80
2024-05-09T17:36:27.843Z,15.50
2024-05-09T17:41:34.599Z,15.40
2024-05-09T17:46:42.098Z,15.30
2024-05-09T17:51:54.415Z,15.20
2024-05-09T17:57:01.376Z,15.30
2024-05-09T18:02:08.367Z,15.00
2024-05-09T18:07:16.054Z,14.90
2024-05-09T18:12:23.220Z,15.20
2024-05-09T18:17:30.193Z,14.70
2024-05-09T18:22:37.154Z,14.50
2024-05-09T18:27:44.539Z,14.50
2024-05-09T18:32:51.717Z,14.40
2024-05-09T18:37:59.251Z,14.30
2024-05-09T18:43:08.965Z,14.10
2024-05-09T18:48:16.508Z,14.00
2024-05-09T18:53:23.772Z,13.90
2024-05-09T18:58:30.945Z,13.80
2024-05-09T19:03:39.036Z,13.70
2024-05-09T19:08:46.314Z,13.60
2024-05-09T19:13:53.562Z,13.50
2024-05-09T19:19:01.214Z,13.40
2024-05-09T19:24:08.447Z,13.40
2024-05-09T19:29:15.775Z,13.40
2024-05-09T19:34:23.525Z,13.20
2024-05-09T19:39:30.892Z,13.20
2024-05-09T19:44:37.964Z,13.20
2024-05-09T19:49:45.050Z,13.00
2024-05-09T19:54:52.079Z,12.80
2024-05-09T19:59:58.978Z,12.90
2024-05-09T20:05:06.591Z,12.80
2024-05-09T20:10:20.629Z,12.60
2024-05-09T20:15:22.199Z,12.40
2024-05-09T20:20:37.056Z,12.30
2024-05-09T20:25:38.142Z,12.30
2024-05-09T20:30:45.091Z,12.10
2024-05-09T20:35:53.563Z,12.00
2024-05-09T20:41:00.492Z,11.90
2024-05-09T20:46:07.614Z,11.90
2024-05-09T20:51:14.770Z,11.60
2024-05-09T20:56:28.288Z,11.60
2024-05-09T21:01:35.289Z,11.70
2024-05-09T21:06:42.468Z,11.50
2024-05-09T21:11:49.281Z,11.50
2024-05-09T21:16:56.176Z,11.40
2024-05-09T21:22:03.517Z,11.30
2024-05-09T21:27:10.672Z,11.30
2024-05-09T21:32:17.408Z,11.20
2024-05-09T21:37:24.257Z,11.20
2024-05-09T21:42:30.995Z,11.30
2024-05-09T21:47:38.324Z,11.20
2024-05-09T21:52:45.179Z,11.20
2024-05-09T21:57:52.071Z,11.00
2024-05-09T22:02:59.074Z,10.90
2024-05-09T22:08:06.993Z,10.90
2024-05-09T22:13:13.918Z,10.90
2024-05-09T22:18:21.063Z,10.90
2024-05-09T22:23:28.744Z,11.00
2024-05-09T22:28:35.509Z,11.00
2024-05-09T22:33:45.524Z,10.90
2024-05-09T22:38:50.715Z,10.60
2024-05-09T22:43:57.639Z,10.50
2024-05-09T22:49:05.126Z,10.60
2024-05-09T22:54:12.186Z,10.60
2024-05-09T22:59:19.404Z,10.50
2024-05-09T23:04:26.263Z,10.50
2024-05-09T23:09:33.360Z,10.40
2024-05-09T23:14:40.328Z,10.20
2024-05-09T23:19:47.438Z,10.20
2024-05-09T23:24:54.456Z,10.20
2024-05-09T23:30:01.583Z,10.20
2024-05-09T23:35:08.713Z,10.10
2024-05-09T23:40:18.969Z,10.30
2024-05-09T23:45:23.947Z,10.30
2024-05-09T23:50:35.109Z,10.50
2024-05-09T23:55:39.629Z,10.30
